This is the latest recevied weather packets stored in our database for station/object IW3HBX-13. If no packets are shown the sender has not sent any weather packets the latest 10 day(s).
| Time | Temp. | Humidity | Pressure | Rain* | Wind** | Luminosity | Snow |
|---|---|---|---|---|---|---|---|
| 1777306689 | 23.33° C | 52% | 1016.1 hPa | 0 mm | - | 171 W/m² | - |
| 1777306327 | 23.33° C | 51% | 1016.2 hPa | 0 mm | - | 194 W/m² | - |
| 1777305969 | 24.44° C | 50% | 1016.2 hPa | 0 mm | - | 220 W/m² | - |
| 1777305247 | 23.33° C | 51% | 1016.2 hPa | 0 mm | - | 256 W/m² | - |
| 1777304887 | 23.89° C | 52% | 1016.1 hPa | 0 mm | - | 265 W/m² | - |
| 1777304527 | 23.89° C | 51% | 1016.2 hPa | 0 mm | - | 279 W/m² | - |
| 1777304170 | 23.89° C | 51% | 1016.1 hPa | 0 mm | - | 292 W/m² | - |
| 1777303810 | 23.89° C | 51% | 1016.1 hPa | 0 mm | - | 286 W/m² | - |
| 1777303447 | 24.44° C | 50% | 1016.2 hPa | 0 mm | - | 300 W/m² | - |
| 1777303087 | 24.44° C | 49% | 1016.2 hPa | 0 mm | - | 301 W/m² | - |
| 1777302728 | 24.44° C | 49% | 1016.3 hPa | 0 mm | - | 335 W/m² | - |
| 1777302367 | 24.44° C | 49% | 1016.3 hPa | 0 mm | - | 355 W/m² | - |
| 1777301647 | 25° C | 48% | 1016.4 hPa | 0 mm | - | 397 W/m² | - |
| 1777301288 | 25° C | 48% | 1016.4 hPa | 0 mm | - | 416 W/m² | - |
| 1777300928 | 25.56° C | 42% | 1016.5 hPa | 0 mm | - | 438 W/m² | - |
| 1777300567 | 25° C | 45% | 1016.5 hPa | 0 mm | - | 453 W/m² | - |
| 1777300208 | 25.56° C | 43% | 1016.5 hPa | 0 mm | - | 462 W/m² | - |
| 1777299847 | 25.56° C | 42% | 1016.5 hPa | 0 mm | - | 481 W/m² | - |
| 1777299487 | 25.56° C | 42% | 1016.5 hPa | 0 mm | - | 501 W/m² | - |
| 1777299128 | 25.56° C | 41% | 1016.6 hPa | 0 mm | - | 519 W/m² | - |
| 1777298768 | 26.11° C | 39% | 1016.7 hPa | 0 mm | - | 543 W/m² | - |
| 1777298050 | 25° C | 41% | 1016.8 hPa | 0 mm | - | 566 W/m² | - |
| 1777297687 | 25.56° C | 39% | 1016.9 hPa | 0 mm | - | 580 W/m² | - |
| 1777297327 | 24.44° C | 41% | 1017.1 hPa | 0 mm | - | 601 W/m² | - |
| 1777296969 | 25.56° C | 39% | 1017.1 hPa | 0 mm | - | 618 W/m² | - |
* Rain latest hour (hover to see other rain measurements)
** Current wind speed in m/s (hover to see current wind gust speed)